Pagina principale
METAR-TAF:

METAR-TAF

Aeroporti :

Aeroporto Internazionale di Kosrae

Kosrae, Micronesia

latitudine: 05-21N, longitudine: 162-57E, altezza: 3 m

Osservazione

Il bollettino è stato emesso 41 minuti fa, alle 12:50 UTC
Vento 7 kt da est/sud-est
Temperature 26°C
Umidità 89%
Pressione 1010 hPa
Visibilità: 16.1 km
Nubi sparse ad un'altezza di 1800 ft
Nuvoloso ad un'altezza di 13000 ft
Cielo coperto ad un'altezza di 30000 ft

METAR: PTSA 191250Z 12007KT 10SM SCT018 BKN130 OVC300 26/24 A2983

Ora: 00:31 (13:31 UTC)

Previsione

Il bollettino è stato emesso 13 ore e 59 minuti fa, alle 23:32 UTC
Previsione valida dal 19 alle 00 UTC al 19 alle 24 UTC
Vento 6 kt da est
Visibilità: 10 km
Nubi sparse ad un'altezza di 1800 ft
Nubi sparse ad un'altezza di 13000 ft

TAF: PTSA 182332Z 1900/1924 10006KT P6SM SCT018 SCT130

Osservazioni e previsioni meteorologiche di più di 4000 aeroporti (messaggi METAR e TAF).

Le stazioni disponibili sono rappresentate dai dischi gialli e rossi sulla carta.

Puntare il mouse per vedere il nome della stazione.

Clicca sopra per visualizzare le osservazioni e previsioni meteorologiche.

Per cambiare la mappa : fare clic sui pulsanti verdi con una croce nera per ingrandire, il pulsante verde con un trattino per diminuire, o sulla freccia verde per le mappe adiacenti.


METAR-TAF: